sensor_id;sensor_type;location;lat;lon;timestamp;P1;durP1;ratioP1;P2;durP2;ratioP2
1106;SDS011;540;49.448;8.612;2023-03-01T00:02:24;15.32;;;6.75;;
1106;SDS011;540;49.448;8.612;2023-03-01T00:04:52;17.58;;;8.77;;
1106;SDS011;540;49.448;8.612;2023-03-01T00:07:19;13.75;;;7.28;;
1106;SDS011;540;49.448;8.612;2023-03-01T00:09:47;12.68;;;6.80;;
1106;SDS011;540;49.448;8.612;2023-03-01T00:12:15;13.45;;;7.22;;
1106;SDS011;540;49.448;8.612;2023-03-01T00:14:44;15.25;;;8.00;;
1106;SDS011;540;49.448;8.612;2023-03-01T00:17:12;14.82;;;7.70;;
1106;SDS011;540;49.448;8.612;2023-03-01T00:19:40;15.23;;;7.00;;
1106;SDS011;540;49.448;8.612;2023-03-01T00:22:07;13.70;;;7.57;;
1106;SDS011;540;49.448;8.612;2023-03-01T00:24:35;15.05;;;7.88;;
1106;SDS011;540;49.448;8.612;2023-03-01T00:27:03;16.00;;;7.10;;
1106;SDS011;540;49.448;8.612;2023-03-01T00:29:31;13.88;;;6.68;;
1106;SDS011;540;49.448;8.612;2023-03-01T00:32:00;13.88;;;6.75;;
1106;SDS011;540;49.448;8.612;2023-03-01T00:34:28;19.25;;;8.05;;
1106;SDS011;540;49.448;8.612;2023-03-01T00:36:55;16.08;;;8.18;;
1106;SDS011;540;49.448;8.612;2023-03-01T00:39:31;17.58;;;8.07;;
1106;SDS011;540;49.448;8.612;2023-03-01T00:41:59;18.17;;;8.60;;
1106;SDS011;540;49.448;8.612;2023-03-01T00:44:27;17.52;;;7.50;;
1106;SDS011;540;49.448;8.612;2023-03-01T00:46:54;15.18;;;7.68;;
1106;SDS011;540;49.448;8.612;2023-03-01T00:49:24;14.32;;;7.32;;
1106;SDS011;540;49.448;8.612;2023-03-01T00:51:53;14.48;;;7.25;;
1106;SDS011;540;49.448;8.612;2023-03-01T00:54:21;17.42;;;7.50;;
1106;SDS011;540;49.448;8.612;2023-03-01T00:56:49;19.40;;;7.80;;
1106;SDS011;540;49.448;8.612;2023-03-01T00:59:17;16.35;;;7.07;;
1106;SDS011;540;49.448;8.612;2023-03-01T01:01:44;18.35;;;8.25;;
1106;SDS011;540;49.448;8.612;2023-03-01T01:04:12;19.02;;;8.05;;
1106;SDS011;540;49.448;8.612;2023-03-01T01:06:42;16.15;;;7.68;;
1106;SDS011;540;49.448;8.612;2023-03-01T01:09:12;20.20;;;8.10;;
1106;SDS011;540;49.448;8.612;2023-03-01T01:11:44;18.83;;;8.05;;
1106;SDS011;540;49.448;8.612;2023-03-01T01:14:12;15.70;;;7.20;;
1106;SDS011;540;49.448;8.612;2023-03-01T01:16:40;17.83;;;8.05;;
1106;SDS011;540;49.448;8.612;2023-03-01T01:19:08;15.55;;;7.90;;
1106;SDS011;540;49.448;8.612;2023-03-01T01:21:37;17.35;;;7.88;;
1106;SDS011;540;49.448;8.612;2023-03-01T01:24:06;14.38;;;7.18;;
1106;SDS011;540;49.448;8.612;2023-03-01T01:26:34;18.83;;;8.60;;
1106;SDS011;540;49.448;8.612;2023-03-01T01:29:03;18.85;;;8.35;;
1106;SDS011;540;49.448;8.612;2023-03-01T01:31:32;17.80;;;7.72;;
1106;SDS011;540;49.448;8.612;2023-03-01T01:34:01;18.55;;;8.07;;
1106;SDS011;540;49.448;8.612;2023-03-01T01:36:31;18.65;;;9.07;;
1106;SDS011;540;49.448;8.612;2023-03-01T01:38:59;18.42;;;7.82;;
1106;SDS011;540;49.448;8.612;2023-03-01T01:41:29;20.70;;;8.70;;
1106;SDS011;540;49.448;8.612;2023-03-01T01:44:11;29.15;;;9.95;;
1106;SDS011;540;49.448;8.612;2023-03-01T01:46:41;20.70;;;10.40;;
1106;SDS011;540;49.448;8.612;2023-03-01T01:49:15;19.38;;;9.05;;
1106;SDS011;540;49.448;8.612;2023-03-01T01:51:48;21.90;;;9.93;;
1106;SDS011;540;49.448;8.612;2023-03-01T01:54:19;21.25;;;9.40;;
1106;SDS011;540;49.448;8.612;2023-03-01T01:56:52;15.93;;;8.52;;
1106;SDS011;540;49.448;8.612;2023-03-01T01:59:24;20.27;;;8.73;;
1106;SDS011;540;49.448;8.612;2023-03-01T02:01:55;18.95;;;8.32;;
1106;SDS011;540;49.448;8.612;2023-03-01T02:04:26;18.63;;;8.48;;
1106;SDS011;540;49.448;8.612;2023-03-01T02:06:55;19.17;;;8.90;;
1106;SDS011;540;49.448;8.612;2023-03-01T02:09:27;20.10;;;9.38;;
1106;SDS011;540;49.448;8.612;2023-03-01T02:11:59;19.17;;;9.88;;
1106;SDS011;540;49.448;8.612;2023-03-01T02:14:28;21.83;;;9.25;;
1106;SDS011;540;49.448;8.612;2023-03-01T02:16:55;24.85;;;9.13;;
1106;SDS011;540;49.448;8.612;2023-03-01T02:19:28;19.92;;;8.95;;
1106;SDS011;540;49.448;8.612;2023-03-01T02:22:08;22.15;;;8.95;;
1106;SDS011;540;49.448;8.612;2023-03-01T02:24:45;22.60;;;9.00;;
1106;SDS011;540;49.448;8.612;2023-03-01T02:27:20;17.58;;;9.00;;
1106;SDS011;540;49.448;8.612;2023-03-01T02:29:54;17.65;;;8.88;;
1106;SDS011;540;49.448;8.612;2023-03-01T02:32:23;22.20;;;9.05;;
1106;SDS011;540;49.448;8.612;2023-03-01T02:34:51;20.88;;;9.85;;
1106;SDS011;540;49.448;8.612;2023-03-01T02:37:20;21.55;;;9.32;;
1106;SDS011;540;49.448;8.612;2023-03-01T02:39:51;17.67;;;8.68;;
1106;SDS011;540;49.448;8.612;2023-03-01T02:42:25;18.65;;;9.00;;
1106;SDS011;540;49.448;8.612;2023-03-01T02:44:56;19.42;;;9.55;;
1106;SDS011;540;49.448;8.612;2023-03-01T02:47:24;22.85;;;10.20;;
1106;SDS011;540;49.448;8.612;2023-03-01T02:49:52;22.95;;;10.52;;
1106;SDS011;540;49.448;8.612;2023-03-01T02:52:37;23.00;;;9.70;;
1106;SDS011;540;49.448;8.612;2023-03-01T02:55:13;19.00;;;8.80;;
1106;SDS011;540;49.448;8.612;2023-03-01T02:57:44;24.85;;;9.65;;
1106;SDS011;540;49.448;8.612;2023-03-01T03:00:19;20.42;;;9.10;;
1106;SDS011;540;49.448;8.612;2023-03-01T03:02:51;19.90;;;10.30;;
1106;SDS011;540;49.448;8.612;2023-03-01T03:05:23;23.50;;;10.63;;
1106;SDS011;540;49.448;8.612;2023-03-01T03:07:52;18.70;;;8.50;;
1106;SDS011;540;49.448;8.612;2023-03-01T03:10:20;22.30;;;9.40;;
1106;SDS011;540;49.448;8.612;2023-03-01T03:12:50;20.88;;;8.38;;
1106;SDS011;540;49.448;8.612;2023-03-01T03:15:21;20.83;;;9.07;;
1106;SDS011;540;49.448;8.612;2023-03-01T03:17:50;18.73;;;9.18;;
1106;SDS011;540;49.448;8.612;2023-03-01T03:20:20;21.15;;;10.35;;
1106;SDS011;540;49.448;8.612;2023-03-01T03:22:50;23.20;;;9.35;;
1106;SDS011;540;49.448;8.612;2023-03-01T03:25:20;22.20;;;10.48;;
1106;SDS011;540;49.448;8.612;2023-03-01T03:27:49;21.48;;;9.55;;
1106;SDS011;540;49.448;8.612;2023-03-01T03:30:24;20.42;;;9.23;;
1106;SDS011;540;49.448;8.612;2023-03-01T03:32:53;20.98;;;9.30;;
1106;SDS011;540;49.448;8.612;2023-03-01T03:35:23;23.25;;;9.82;;
1106;SDS011;540;49.448;8.612;2023-03-01T03:37:52;24.27;;;10.27;;
1106;SDS011;540;49.448;8.612;2023-03-01T03:40:30;21.80;;;9.75;;
1106;SDS011;540;49.448;8.612;2023-03-01T03:42:59;20.50;;;9.80;;
1106;SDS011;540;49.448;8.612;2023-03-01T03:45:28;25.25;;;10.32;;
1106;SDS011;540;49.448;8.612;2023-03-01T03:47:59;24.23;;;10.10;;
1106;SDS011;540;49.448;8.612;2023-03-01T03:50:27;18.95;;;9.18;;
1106;SDS011;540;49.448;8.612;2023-03-01T03:52:55;21.27;;;10.35;;
1106;SDS011;540;49.448;8.612;2023-03-01T03:55:23;22.20;;;10.00;;
1106;SDS011;540;49.448;8.612;2023-03-01T03:57:56;21.15;;;10.43;;
1106;SDS011;540;49.448;8.612;2023-03-01T04:00:29;23.05;;;10.05;;
1106;SDS011;540;49.448;8.612;2023-03-01T04:02:57;22.70;;;10.65;;
1106;SDS011;540;49.448;8.612;2023-03-01T04:05:25;24.88;;;10.00;;
1106;SDS011;540;49.448;8.612;2023-03-01T04:07:53;23.38;;;10.38;;
1106;SDS011;540;49.448;8.612;2023-03-01T04:10:33;20.20;;;9.43;;
1106;SDS011;540;49.448;8.612;2023-03-01T04:13:03;30.00;;;11.50;;
1106;SDS011;540;49.448;8.612;2023-03-01T04:15:33;31.42;;;10.95;;
1106;SDS011;540;49.448;8.612;2023-03-01T04:18:01;27.20;;;10.82;;
1106;SDS011;540;49.448;8.612;2023-03-01T04:20:32;25.42;;;10.48;;
1106;SDS011;540;49.448;8.612;2023-03-01T04:23:02;24.45;;;10.18;;
1106;SDS011;540;49.448;8.612;2023-03-01T04:25:37;23.02;;;10.50;;
1106;SDS011;540;49.448;8.612;2023-03-01T04:28:06;26.98;;;11.30;;
1106;SDS011;540;49.448;8.612;2023-03-01T04:30:35;24.75;;;11.13;;
1106;SDS011;540;49.448;8.612;2023-03-01T04:33:04;25.77;;;10.75;;
1106;SDS011;540;49.448;8.612;2023-03-01T04:35:33;27.38;;;10.68;;
1106;SDS011;540;49.448;8.612;2023-03-01T04:38:03;22.88;;;11.18;;
1106;SDS011;540;49.448;8.612;2023-03-01T04:40:31;20.83;;;10.48;;
1106;SDS011;540;49.448;8.612;2023-03-01T04:42:59;25.52;;;10.60;;
1106;SDS011;540;49.448;8.612;2023-03-01T04:45:28;24.35;;;9.90;;
1106;SDS011;540;49.448;8.612;2023-03-01T04:47:57;21.75;;;10.65;;
1106;SDS011;540;49.448;8.612;2023-03-01T04:50:25;22.52;;;10.48;;
1106;SDS011;540;49.448;8.612;2023-03-01T04:52:53;24.35;;;10.52;;
1106;SDS011;540;49.448;8.612;2023-03-01T04:55:24;24.08;;;10.63;;
1106;SDS011;540;49.448;8.612;2023-03-01T04:57:52;26.13;;;11.32;;
1106;SDS011;540;49.448;8.612;2023-03-01T05:00:21;24.20;;;11.18;;
1106;SDS011;540;49.448;8.612;2023-03-01T05:02:50;24.40;;;10.48;;
1106;SDS011;540;49.448;8.612;2023-03-01T05:05:23;24.52;;;12.73;;
1106;SDS011;540;49.448;8.612;2023-03-01T05:07:52;23.92;;;10.77;;
1106;SDS011;540;49.448;8.612;2023-03-01T05:10:21;23.52;;;11.45;;
1106;SDS011;540;49.448;8.612;2023-03-01T05:12:49;23.15;;;10.55;;
1106;SDS011;540;49.448;8.612;2023-03-01T05:15:18;23.02;;;10.55;;
1106;SDS011;540;49.448;8.612;2023-03-01T05:17:47;23.42;;;11.02;;
1106;SDS011;540;49.448;8.612;2023-03-01T05:20:15;21.90;;;11.10;;
1106;SDS011;540;49.448;8.612;2023-03-01T05:22:44;23.08;;;10.35;;
1106;SDS011;540;49.448;8.612;2023-03-01T05:25:12;26.02;;;10.65;;
1106;SDS011;540;49.448;8.612;2023-03-01T05:27:41;30.52;;;10.98;;
1106;SDS011;540;49.448;8.612;2023-03-01T05:30:09;27.58;;;10.27;;
1106;SDS011;540;49.448;8.612;2023-03-01T05:32:42;22.65;;;10.48;;
1106;SDS011;540;49.448;8.612;2023-03-01T05:35:12;22.98;;;10.68;;
1106;SDS011;540;49.448;8.612;2023-03-01T05:37:42;26.83;;;10.45;;
1106;SDS011;540;49.448;8.612;2023-03-01T05:40:13;20.95;;;10.75;;
1106;SDS011;540;49.448;8.612;2023-03-01T05:42:43;24.33;;;11.70;;
1106;SDS011;540;49.448;8.612;2023-03-01T05:45:12;21.70;;;10.63;;
1106;SDS011;540;49.448;8.612;2023-03-01T05:47:42;24.70;;;11.07;;
1106;SDS011;540;49.448;8.612;2023-03-01T05:50:12;29.13;;;11.50;;
1106;SDS011;540;49.448;8.612;2023-03-01T05:52:45;26.38;;;10.90;;
1106;SDS011;540;49.448;8.612;2023-03-01T05:55:16;24.98;;;10.35;;
1106;SDS011;540;49.448;8.612;2023-03-01T05:57:44;24.48;;;10.88;;
1106;SDS011;540;49.448;8.612;2023-03-01T06:00:14;27.90;;;12.73;;
1106;SDS011;540;49.448;8.612;2023-03-01T06:02:44;23.73;;;10.88;;
1106;SDS011;540;49.448;8.612;2023-03-01T06:05:12;26.65;;;10.57;;
1106;SDS011;540;49.448;8.612;2023-03-01T06:07:41;24.08;;;10.70;;
1106;SDS011;540;49.448;8.612;2023-03-01T06:10:10;24.27;;;10.88;;
1106;SDS011;540;49.448;8.612;2023-03-01T06:12:41;27.45;;;10.95;;
1106;SDS011;540;49.448;8.612;2023-03-01T06:15:10;22.83;;;10.18;;
1106;SDS011;540;49.448;8.612;2023-03-01T06:17:39;22.65;;;9.68;;
1106;SDS011;540;49.448;8.612;2023-03-01T06:20:09;24.38;;;10.60;;
1106;SDS011;540;49.448;8.612;2023-03-01T06:22:38;23.15;;;10.88;;
1106;SDS011;540;49.448;8.612;2023-03-01T06:25:07;21.77;;;9.93;;
1106;SDS011;540;49.448;8.612;2023-03-01T06:27:36;22.38;;;10.07;;
1106;SDS011;540;49.448;8.612;2023-03-01T06:30:06;19.90;;;10.48;;
1106;SDS011;540;49.448;8.612;2023-03-01T06:32:36;22.38;;;10.20;;
1106;SDS011;540;49.448;8.612;2023-03-01T06:35:08;24.98;;;10.95;;
1106;SDS011;540;49.448;8.612;2023-03-01T06:37:37;22.65;;;10.27;;
1106;SDS011;540;49.448;8.612;2023-03-01T06:40:05;27.17;;;10.98;;
1106;SDS011;540;49.448;8.612;2023-03-01T06:42:37;22.80;;;10.32;;
1106;SDS011;540;49.448;8.612;2023-03-01T06:45:08;26.30;;;10.40;;
1106;SDS011;540;49.448;8.612;2023-03-01T06:47:36;22.38;;;10.45;;
1106;SDS011;540;49.448;8.612;2023-03-01T06:50:05;19.85;;;9.75;;
1106;SDS011;540;49.448;8.612;2023-03-01T06:52:33;24.23;;;10.43;;
1106;SDS011;540;49.448;8.612;2023-03-01T06:55:01;25.08;;;10.07;;
1106;SDS011;540;49.448;8.612;2023-03-01T06:57:29;25.58;;;10.75;;
1106;SDS011;540;49.448;8.612;2023-03-01T06:59:57;20.65;;;9.35;;
1106;SDS011;540;49.448;8.612;2023-03-01T07:02:26;23.98;;;10.93;;
1106;SDS011;540;49.448;8.612;2023-03-01T07:04:54;25.10;;;10.60;;
1106;SDS011;540;49.448;8.612;2023-03-01T07:07:21;24.58;;;9.68;;
1106;SDS011;540;49.448;8.612;2023-03-01T07:09:49;28.42;;;12.00;;
1106;SDS011;540;49.448;8.612;2023-03-01T07:12:17;22.70;;;10.50;;
1106;SDS011;540;49.448;8.612;2023-03-01T07:14:45;23.05;;;10.48;;
1106;SDS011;540;49.448;8.612;2023-03-01T07:17:13;24.60;;;11.18;;
1106;SDS011;540;49.448;8.612;2023-03-01T07:19:42;23.75;;;10.27;;
1106;SDS011;540;49.448;8.612;2023-03-01T07:22:11;23.42;;;11.05;;
1106;SDS011;540;49.448;8.612;2023-03-01T07:24:38;23.55;;;10.73;;
1106;SDS011;540;49.448;8.612;2023-03-01T07:27:07;21.92;;;10.10;;
1106;SDS011;540;49.448;8.612;2023-03-01T07:29:35;43.28;;;19.67;;
1106;SDS011;540;49.448;8.612;2023-03-01T07:32:03;31.05;;;13.13;;
1106;SDS011;540;49.448;8.612;2023-03-01T07:34:32;35.40;;;16.10;;
1106;SDS011;540;49.448;8.612;2023-03-01T07:37:01;35.38;;;17.65;;
1106;SDS011;540;49.448;8.612;2023-03-01T07:39:29;23.90;;;11.13;;
1106;SDS011;540;49.448;8.612;2023-03-01T07:41:57;23.35;;;10.27;;
1106;SDS011;540;49.448;8.612;2023-03-01T07:44:24;20.35;;;10.18;;
1106;SDS011;540;49.448;8.612;2023-03-01T07:46:52;23.35;;;10.50;;
1106;SDS011;540;49.448;8.612;2023-03-01T07:49:22;24.83;;;11.85;;
1106;SDS011;540;49.448;8.612;2023-03-01T07:51:52;19.65;;;10.73;;
1106;SDS011;540;49.448;8.612;2023-03-01T07:54:21;23.00;;;11.32;;
1106;SDS011;540;49.448;8.612;2023-03-01T07:56:49;20.13;;;11.15;;
1106;SDS011;540;49.448;8.612;2023-03-01T07:59:17;16.15;;;10.00;;
1106;SDS011;540;49.448;8.612;2023-03-01T08:01:45;21.85;;;12.13;;
1106;SDS011;540;49.448;8.612;2023-03-01T08:04:13;20.70;;;11.98;;
1106;SDS011;540;49.448;8.612;2023-03-01T08:06:41;17.42;;;10.70;;
1106;SDS011;540;49.448;8.612;2023-03-01T08:09:08;20.08;;;12.05;;
1106;SDS011;540;49.448;8.612;2023-03-01T08:11:37;16.77;;;10.27;;
1106;SDS011;540;49.448;8.612;2023-03-01T08:14:05;16.90;;;11.18;;
1106;SDS011;540;49.448;8.612;2023-03-01T08:16:33;15.77;;;10.75;;
1106;SDS011;540;49.448;8.612;2023-03-01T08:19:03;25.90;;;16.08;;
1106;SDS011;540;49.448;8.612;2023-03-01T08:21:32;21.15;;;12.05;;
1106;SDS011;540;49.448;8.612;2023-03-01T08:24:01;18.30;;;12.05;;
1106;SDS011;540;49.448;8.612;2023-03-01T08:26:30;17.42;;;12.15;;
1106;SDS011;540;49.448;8.612;2023-03-01T08:28:59;16.17;;;11.32;;
1106;SDS011;540;49.448;8.612;2023-03-01T08:31:28;16.95;;;11.75;;
1106;SDS011;540;49.448;8.612;2023-03-01T08:33:59;18.98;;;12.30;;
1106;SDS011;540;49.448;8.612;2023-03-01T08:36:28;20.70;;;12.50;;
1106;SDS011;540;49.448;8.612;2023-03-01T08:38:58;16.17;;;11.20;;
1106;SDS011;540;49.448;8.612;2023-03-01T08:41:26;22.85;;;12.60;;
1106;SDS011;540;49.448;8.612;2023-03-01T08:43:54;21.23;;;12.65;;
1106;SDS011;540;49.448;8.612;2023-03-01T08:46:26;16.25;;;11.68;;
1106;SDS011;540;49.448;8.612;2023-03-01T08:48:55;18.95;;;12.65;;
1106;SDS011;540;49.448;8.612;2023-03-01T08:51:23;17.67;;;11.98;;
1106;SDS011;540;49.448;8.612;2023-03-01T08:53:52;26.92;;;18.00;;
1106;SDS011;540;49.448;8.612;2023-03-01T08:56:20;18.17;;;12.93;;
1106;SDS011;540;49.448;8.612;2023-03-01T08:58:48;20.33;;;12.57;;
1106;SDS011;540;49.448;8.612;2023-03-01T09:01:17;17.85;;;13.18;;
1106;SDS011;540;49.448;8.612;2023-03-01T09:03:49;17.27;;;12.27;;
1106;SDS011;540;49.448;8.612;2023-03-01T09:06:18;24.10;;;16.05;;
1106;SDS011;540;49.448;8.612;2023-03-01T09:08:49;18.00;;;14.15;;
1106;SDS011;540;49.448;8.612;2023-03-01T09:11:19;23.52;;;15.48;;
1106;SDS011;540;49.448;8.612;2023-03-01T09:13:50;24.75;;;16.73;;
1106;SDS011;540;49.448;8.612;2023-03-01T09:16:20;18.05;;;13.35;;
1106;SDS011;540;49.448;8.612;2023-03-01T09:18:52;22.55;;;16.65;;
1106;SDS011;540;49.448;8.612;2023-03-01T09:21:23;20.48;;;14.95;;
1106;SDS011;540;49.448;8.612;2023-03-01T09:24:06;21.83;;;16.80;;
1106;SDS011;540;49.448;8.612;2023-03-01T09:26:40;17.92;;;13.45;;
1106;SDS011;540;49.448;8.612;2023-03-01T09:29:10;18.20;;;13.23;;
1106;SDS011;540;49.448;8.612;2023-03-01T09:31:40;57.22;;;39.28;;
1106;SDS011;540;49.448;8.612;2023-03-01T09:34:11;21.58;;;15.95;;
1106;SDS011;540;49.448;8.612;2023-03-01T09:36:43;16.80;;;12.35;;
1106;SDS011;540;49.448;8.612;2023-03-01T09:39:13;16.85;;;13.07;;
1106;SDS011;540;49.448;8.612;2023-03-01T09:41:46;15.70;;;12.20;;
1106;SDS011;540;49.448;8.612;2023-03-01T09:44:21;15.88;;;12.05;;
1106;SDS011;540;49.448;8.612;2023-03-01T09:46:56;20.10;;;12.30;;
1106;SDS011;540;49.448;8.612;2023-03-01T09:49:28;16.83;;;12.70;;
1106;SDS011;540;49.448;8.612;2023-03-01T09:52:00;16.20;;;12.00;;
1106;SDS011;540;49.448;8.612;2023-03-01T09:54:35;15.07;;;11.27;;
1106;SDS011;540;49.448;8.612;2023-03-01T09:57:08;16.20;;;12.32;;
1106;SDS011;540;49.448;8.612;2023-03-01T09:59:48;16.05;;;11.82;;
1106;SDS011;540;49.448;8.612;2023-03-01T10:02:31;17.98;;;13.20;;
1106;SDS011;540;49.448;8.612;2023-03-01T10:05:12;19.23;;;14.02;;
1106;SDS011;540;49.448;8.612;2023-03-01T10:07:52;19.02;;;13.93;;
1106;SDS011;540;49.448;8.612;2023-03-01T10:10:29;18.30;;;13.30;;
1106;SDS011;540;49.448;8.612;2023-03-01T10:13:01;19.40;;;12.18;;
1106;SDS011;540;49.448;8.612;2023-03-01T10:15:37;18.42;;;13.23;;
1106;SDS011;540;49.448;8.612;2023-03-01T10:18:10;15.95;;;12.77;;
1106;SDS011;540;49.448;8.612;2023-03-01T10:20:46;22.15;;;16.45;;
1106;SDS011;540;49.448;8.612;2023-03-01T10:23:19;22.00;;;15.60;;
1106;SDS011;540;49.448;8.612;2023-03-01T10:25:49;16.70;;;13.38;;
1106;SDS011;540;49.448;8.612;2023-03-01T10:28:31;18.50;;;15.27;;
1106;SDS011;540;49.448;8.612;2023-03-01T10:31:09;16.20;;;12.85;;
1106;SDS011;540;49.448;8.612;2023-03-01T10:33:41;14.60;;;11.70;;
1106;SDS011;540;49.448;8.612;2023-03-01T10:36:10;17.50;;;13.23;;
1106;SDS011;540;49.448;8.612;2023-03-01T10:38:48;17.08;;;12.18;;
1106;SDS011;540;49.448;8.612;2023-03-01T10:41:18;17.10;;;12.32;;
1106;SDS011;540;49.448;8.612;2023-03-01T10:43:47;17.55;;;13.07;;
1106;SDS011;540;49.448;8.612;2023-03-01T10:46:24;17.00;;;12.27;;
1106;SDS011;540;49.448;8.612;2023-03-01T10:49:06;17.52;;;13.38;;
1106;SDS011;540;49.448;8.612;2023-03-01T10:51:42;16.40;;;12.98;;
1106;SDS011;540;49.448;8.612;2023-03-01T10:54:16;17.02;;;12.85;;
1106;SDS011;540;49.448;8.612;2023-03-01T10:56:45;15.52;;;13.15;;
1106;SDS011;540;49.448;8.612;2023-03-01T10:59:26;13.77;;;11.95;;
1106;SDS011;540;49.448;8.612;2023-03-01T11:02:02;25.45;;;21.08;;
1106;SDS011;540;49.448;8.612;2023-03-01T11:04:56;19.77;;;16.17;;
1106;SDS011;540;49.448;8.612;2023-03-01T11:07:27;19.13;;;14.63;;
1106;SDS011;540;49.448;8.612;2023-03-01T11:09:55;17.08;;;13.02;;
1106;SDS011;540;49.448;8.612;2023-03-01T11:12:23;15.77;;;12.25;;
1106;SDS011;540;49.448;8.612;2023-03-01T11:14:52;15.70;;;12.32;;
1106;SDS011;540;49.448;8.612;2023-03-01T11:17:23;15.98;;;11.82;;
1106;SDS011;540;49.448;8.612;2023-03-01T11:20:02;16.38;;;12.02;;
1106;SDS011;540;49.448;8.612;2023-03-01T11:22:43;17.15;;;12.48;;
1106;SDS011;540;49.448;8.612;2023-03-01T11:25:14;18.77;;;12.35;;
1106;SDS011;540;49.448;8.612;2023-03-01T11:27:44;14.88;;;12.13;;
1106;SDS011;540;49.448;8.612;2023-03-01T11:30:15;19.98;;;15.32;;
1106;SDS011;540;49.448;8.612;2023-03-01T11:32:47;20.23;;;13.75;;
1106;SDS011;540;49.448;8.612;2023-03-01T11:35:22;16.95;;;13.05;;
1106;SDS011;540;49.448;8.612;2023-03-01T11:37:58;17.23;;;12.77;;
1106;SDS011;540;49.448;8.612;2023-03-01T11:40:33;19.42;;;13.20;;
1106;SDS011;540;49.448;8.612;2023-03-01T11:43:09;16.85;;;12.77;;
1106;SDS011;540;49.448;8.612;2023-03-01T11:45:52;14.70;;;10.30;;
1106;SDS011;540;49.448;8.612;2023-03-01T11:48:32;15.23;;;11.75;;
1106;SDS011;540;49.448;8.612;2023-03-01T11:51:17;22.05;;;15.65;;
1106;SDS011;540;49.448;8.612;2023-03-01T11:53:53;13.32;;;11.23;;
1106;SDS011;540;49.448;8.612;2023-03-01T11:56:34;17.20;;;10.80;;
1106;SDS011;540;49.448;8.612;2023-03-01T11:59:10;16.23;;;11.40;;
1106;SDS011;540;49.448;8.612;2023-03-01T12:02:00;15.10;;;11.00;;
1106;SDS011;540;49.448;8.612;2023-03-01T12:04:49;15.63;;;12.40;;
1106;SDS011;540;49.448;8.612;2023-03-01T12:07:42;13.15;;;10.30;;
1106;SDS011;540;49.448;8.612;2023-03-01T12:10:22;13.10;;;10.15;;
1106;SDS011;540;49.448;8.612;2023-03-01T12:12:58;17.20;;;10.48;;
1106;SDS011;540;49.448;8.612;2023-03-01T12:15:46;12.35;;;10.40;;
1106;SDS011;540;49.448;8.612;2023-03-01T12:21:21;13.88;;;9.80;;
1106;SDS011;540;49.448;8.612;2023-03-01T12:24:06;14.73;;;11.43;;
1106;SDS011;540;49.448;8.612;2023-03-01T12:26:50;17.27;;;12.98;;
1106;SDS011;540;49.448;8.612;2023-03-01T12:29:26;17.73;;;12.70;;
1106;SDS011;540;49.448;8.612;2023-03-01T12:35:13;17.25;;;12.20;;
1106;SDS011;540;49.448;8.612;2023-03-01T12:38:02;16.73;;;12.25;;
1106;SDS011;540;49.448;8.612;2023-03-01T12:40:54;17.40;;;11.45;;
1106;SDS011;540;49.448;8.612;2023-03-01T12:43:42;17.48;;;12.45;;
1106;SDS011;540;49.448;8.612;2023-03-01T12:46:25;18.80;;;11.63;;
1106;SDS011;540;49.448;8.612;2023-03-01T12:49:05;15.73;;;11.13;;
1106;SDS011;540;49.448;8.612;2023-03-01T12:51:38;17.40;;;12.60;;
1106;SDS011;540;49.448;8.612;2023-03-01T12:54:11;16.85;;;10.80;;
1106;SDS011;540;49.448;8.612;2023-03-01T12:56:42;18.83;;;11.98;;
1106;SDS011;540;49.448;8.612;2023-03-01T12:59:20;17.17;;;11.40;;
1106;SDS011;540;49.448;8.612;2023-03-01T13:01:53;15.77;;;10.90;;
1106;SDS011;540;49.448;8.612;2023-03-01T13:04:27;16.20;;;10.75;;
1106;SDS011;540;49.448;8.612;2023-03-01T13:07:07;16.85;;;10.55;;
1106;SDS011;540;49.448;8.612;2023-03-01T13:09:48;20.02;;;12.00;;
1106;SDS011;540;49.448;8.612;2023-03-01T13:12:47;16.65;;;11.93;;
1106;SDS011;540;49.448;8.612;2023-03-01T13:15:31;17.48;;;11.82;;
1106;SDS011;540;49.448;8.612;2023-03-01T13:18:01;19.67;;;12.63;;
1106;SDS011;540;49.448;8.612;2023-03-01T13:20:33;21.10;;;10.98;;
1106;SDS011;540;49.448;8.612;2023-03-01T13:23:13;17.20;;;11.63;;
1106;SDS011;540;49.448;8.612;2023-03-01T13:28:49;16.80;;;11.10;;
1106;SDS011;540;49.448;8.612;2023-03-01T13:37:27;14.27;;;9.48;;
1106;SDS011;540;49.448;8.612;2023-03-01T13:40:00;15.30;;;10.25;;
1106;SDS011;540;49.448;8.612;2023-03-01T13:42:33;15.60;;;9.25;;
1106;SDS011;540;49.448;8.612;2023-03-01T13:45:05;13.57;;;9.13;;
1106;SDS011;540;49.448;8.612;2023-03-01T13:47:49;16.30;;;9.35;;
1106;SDS011;540;49.448;8.612;2023-03-01T13:50:25;19.70;;;9.43;;
1106;SDS011;540;49.448;8.612;2023-03-01T13:52:57;14.70;;;9.95;;
1106;SDS011;540;49.448;8.612;2023-03-01T13:55:34;16.33;;;10.32;;
1106;SDS011;540;49.448;8.612;2023-03-01T13:58:13;17.80;;;10.60;;
1106;SDS011;540;49.448;8.612;2023-03-01T14:00:45;15.52;;;9.32;;
1106;SDS011;540;49.448;8.612;2023-03-01T14:03:14;14.68;;;10.10;;
1106;SDS011;540;49.448;8.612;2023-03-01T14:05:57;17.27;;;10.20;;
1106;SDS011;540;49.448;8.612;2023-03-01T14:11:21;14.73;;;9.35;;
1106;SDS011;540;49.448;8.612;2023-03-01T14:14:09;15.85;;;9.63;;
1106;SDS011;540;49.448;8.612;2023-03-01T14:16:47;14.25;;;8.93;;
1106;SDS011;540;49.448;8.612;2023-03-01T14:19:25;16.95;;;10.02;;
1106;SDS011;540;49.448;8.612;2023-03-01T14:22:01;15.30;;;9.48;;
1106;SDS011;540;49.448;8.612;2023-03-01T14:24:39;19.52;;;10.00;;
1106;SDS011;540;49.448;8.612;2023-03-01T14:27:13;15.95;;;9.18;;
1106;SDS011;540;49.448;8.612;2023-03-01T14:29:41;17.05;;;9.68;;
1106;SDS011;540;49.448;8.612;2023-03-01T14:32:10;14.75;;;8.23;;
1106;SDS011;540;49.448;8.612;2023-03-01T14:34:42;15.85;;;8.40;;
1106;SDS011;540;49.448;8.612;2023-03-01T14:37:18;13.43;;;8.90;;
1106;SDS011;540;49.448;8.612;2023-03-01T14:39:48;17.00;;;9.00;;
1106;SDS011;540;49.448;8.612;2023-03-01T14:42:16;14.65;;;7.82;;
1106;SDS011;540;49.448;8.612;2023-03-01T14:44:46;16.48;;;8.80;;
1106;SDS011;540;49.448;8.612;2023-03-01T14:47:17;16.65;;;8.20;;
1106;SDS011;540;49.448;8.612;2023-03-01T14:49:53;15.10;;;8.63;;
1106;SDS011;540;49.448;8.612;2023-03-01T14:52:27;14.70;;;7.50;;
1106;SDS011;540;49.448;8.612;2023-03-01T14:55:02;17.45;;;8.82;;
1106;SDS011;540;49.448;8.612;2023-03-01T14:57:34;12.52;;;7.82;;
1106;SDS011;540;49.448;8.612;2023-03-01T15:00:03;14.60;;;8.48;;
1106;SDS011;540;49.448;8.612;2023-03-01T15:02:33;16.77;;;7.93;;
1106;SDS011;540;49.448;8.612;2023-03-01T15:05:03;14.85;;;7.90;;
1106;SDS011;540;49.448;8.612;2023-03-01T15:07:37;14.80;;;8.05;;
1106;SDS011;540;49.448;8.612;2023-03-01T15:10:14;17.15;;;8.45;;
1106;SDS011;540;49.448;8.612;2023-03-01T15:12:46;13.88;;;8.02;;
1106;SDS011;540;49.448;8.612;2023-03-01T15:15:30;18.38;;;8.50;;
1106;SDS011;540;49.448;8.612;2023-03-01T15:18:04;14.40;;;8.35;;
1106;SDS011;540;49.448;8.612;2023-03-01T15:20:40;15.77;;;9.10;;
1106;SDS011;540;49.448;8.612;2023-03-01T15:23:16;16.02;;;8.68;;
1106;SDS011;540;49.448;8.612;2023-03-01T15:25:48;17.60;;;8.65;;
1106;SDS011;540;49.448;8.612;2023-03-01T15:28:23;15.35;;;7.85;;
1106;SDS011;540;49.448;8.612;2023-03-01T15:30:57;15.73;;;8.27;;
1106;SDS011;540;49.448;8.612;2023-03-01T15:33:35;13.43;;;7.85;;
1106;SDS011;540;49.448;8.612;2023-03-01T15:41:57;13.68;;;7.93;;
1106;SDS011;540;49.448;8.612;2023-03-01T15:44:26;14.10;;;7.57;;
1106;SDS011;540;49.448;8.612;2023-03-01T15:47:21;17.02;;;9.55;;
1106;SDS011;540;49.448;8.612;2023-03-01T15:49:52;15.23;;;7.45;;
1106;SDS011;540;49.448;8.612;2023-03-01T15:52:22;14.57;;;7.90;;
1106;SDS011;540;49.448;8.612;2023-03-01T15:54:57;14.32;;;7.88;;
1106;SDS011;540;49.448;8.612;2023-03-01T15:57:27;16.85;;;8.35;;
1106;SDS011;540;49.448;8.612;2023-03-01T15:59:55;15.15;;;8.52;;
1106;SDS011;540;49.448;8.612;2023-03-01T16:02:23;12.13;;;7.28;;